Latest Weather Observations for Holmes Reef

IDQ60801

Issued at 12:02 am EST Monday 26 January 2015 (issued every 30 minutes, with the page automatically refreshed every 10 minutes)

About weather observations | Map of weather stations | Latest weather observations for QLD | Other Formats
Station Details ID: 200732 Name: HOLMES REEF Lat: -16.47 Lon: 147.87 Height: 1.9 m
Data from the previous 72 hours. | See also: Recent months at Holmes Reef
Date/Time
EST
Temp
°C
App
Temp
°C
Dew
Point
Rel
Hum
%
Delta-T
°C
Wind Press
QNH
hPa
Press
MSL
hPa
Rain
since 9 am
mm
Dir
 
Spd
km/h
Gust
km/h
Spd
kts
Gust
kts
26/12:00am 29.2 - - - - W 32 37 17 20 1008.1 - -
 
Date/Time
EST
Temp
°C
App
Temp
°C
Dew
Point
Rel
Hum
%
Delta-T
°C
Wind Press
QNH
hPa
Press
MSL
hPa
Rain
since 9 am
mm
Dir
 
Spd
km/h
Gust
km/h
Spd
kts
Gust
kts
25/11:30pm 29.2 - - - - W 28 33 15 18 1008.3 - -
25/11:15pm 29.2 - - - - W 26 - 14 - - 1008.2 -
25/11:00pm 29.2 - - - - W 30 32 16 17 1008.8 - -
25/10:30pm 29.1 - - - - WNW 22 26 12 14 1008.1 - -
25/10:15pm 29.1 - - - - NW 22 - 12 - - 1007.8 -
25/10:00pm 29.1 - - - - NW 20 26 11 14 1007.7 - -
25/09:30pm 29.1 - - - - WNW 24 28 13 15 1007.8 - -
25/09:15pm 29.1 - - - - WNW 30 - 16 - - 1007.5 -
25/09:00pm 29.1 - - - - NW 32 37 17 20 1007.5 - -
25/08:30pm 29.0 - - - - NW 33 39 18 21 1007.6 - -
25/08:15pm 29.0 - - - - NW 33 - 18 - - 1007.2 -
25/08:00pm 29.1 - - - - NW 32 37 17 20 1007.3 - -
25/07:30pm 29.0 - - - - NW 35 41 19 22 1007.0 - -
25/07:15pm 29.1 - - - - NW 37 - 20 - - 1006.9 -
25/07:00pm 29.0 - - - - NW 37 41 20 22 1006.9 - -
25/06:30pm 29.0 - - - - NW 33 39 18 21 1006.4 - -
25/06:15pm 28.9 - - - - NW 33 - 18 - - 1005.8 -
25/06:00pm 28.9 - - - - NW 33 39 18 21 1005.9 - -
25/05:30pm 28.9 - - - - NW 32 37 17 20 1005.7 - -
25/05:15pm 28.9 - - - - NW 32 - 17 - - 1005.2 -
25/05:00pm 29.0 - - - - NW 30 35 16 19 1005.4 - -
25/04:30pm 29.0 - - - - WNW 32 33 17 18 1005.6 - -
25/04:15pm 28.9 - - - - WNW 30 - 16 - - 1005.4 -
25/04:00pm 28.9 - - - - WNW 30 33 16 18 1005.9 - -
25/03:30pm 28.9 - - - - WNW 28 32 15 17 1006.1 - -
25/03:15pm 29.1 - - - - WNW 28 - 15 - - 1006.0 -
25/02:30pm 29.0 - - - - WNW 32 35 17 19 1006.7 - -
25/02:15pm 29.1 - - - - WNW 30 - 16 - - 1006.5 -
25/02:00pm 28.9 - - - - WNW 32 37 17 20 1006.9 - -
25/01:30pm 28.8 - - - - WNW 33 39 18 21 1007.4 - -
25/01:15pm 29.0 - - - - WNW 35 - 19 - - 1007.3 -
25/01:00pm 28.9 - - - - WNW 33 37 18 20 1007.7 - -
25/12:30pm 29.0 - - - - WNW 39 46 21 25 1007.9 - -
25/12:15pm 28.9 - - - - WNW 37 - 20 - - 1007.8 -
25/12:00pm 28.9 - - - - WNW 41 46 22 25 1008.2 - -
25/11:30am 29.0 - - - - WNW 37 46 20 25 1008.5 - -
25/11:15am 29.1 - - - - WNW 41 - 22 - - 1008.5 -
25/11:00am 29.1 - - - - WNW 35 41 19 22 1009.1 - -
25/10:30am 28.9 - - - - WNW 37 43 20 23 1009.3 - -
25/10:15am 29.0 - - - - WNW 35 - 19 - - 1009.0 -
25/10:00am 28.9 - - - - WNW 33 39 18 21 1009.3 - -
25/09:30am 28.9 - - - - WNW 32 37 17 20 1009.5 - -
25/09:15am 28.9 - - - - WNW 32 - 17 - - 1009.3 -
25/09:00am 28.8 - - - - WNW 32 35 17 19 1009.5 - -
25/08:30am 28.6 - - - - WNW 30 32 16 17 1009.4 - -
25/08:15am 28.6 - - - - W 26 - 14 - - 1009.1 -
25/08:00am 28.9 - - - - W 24 28 13 15 1009.5 - -
25/07:30am 29.0 - - - - W 24 26 13 14 1009.5 - -
25/07:15am 28.9 - - - - W 24 - 13 - - 1009.2 -
25/07:00am 28.9 - - - - W 24 28 13 15 1009.4 - -
25/06:30am 28.9 - - - - W 30 33 16 18 1009.1 - -
25/06:15am 28.8 - - - - W 32 - 17 - - 1008.6 -
25/06:00am 28.9 - - - - W 30 35 16 19 1008.6 - -
25/05:30am 28.8 - - - - W 32 37 17 20 1008.2 - -
25/05:15am 28.8 - - - - W 32 - 17 - - 1007.7 -
25/05:00am 28.8 - - - - W 32 35 17 19 1007.8 - -
25/04:30am 28.8 - - - - W 35 39 19 21 1007.9 - -
25/04:15am 28.8 - - - - WNW 33 - 18 - - 1007.5 -
25/04:00am 28.8 - - - - WNW 33 39 18 21 1007.7 - -
25/03:30am 28.9 - - - - WNW 35 41 19 22 1007.5 - -
25/03:15am 28.8 - - - - WNW 35 - 19 - - 1007.0 -
25/03:00am 28.9 - - - - WNW 33 39 18 21 1007.4 - -
25/02:30am 29.0 - - - - WNW 37 43 20 23 1007.5 - -
25/02:15am 29.2 - - - - WNW 37 - 20 - - 1007.5 -
25/02:00am 29.0 - - - - WNW 39 44 21 24 1007.9 - -
25/01:30am 29.1 - - - - WNW 39 43 21 23 1008.3 - -
25/01:15am 29.2 - - - - WNW 39 - 21 - - 1008.2 -
25/01:00am 29.1 - - - - WNW 41 50 22 27 1008.6 - -
25/12:30am 29.1 - - - - WNW 41 48 22 26 1008.8 - -
25/12:15am 29.1 - - - - WNW 41 - 22 - - 1008.5 -
25/12:00am 29.1 - - - - WNW 41 46 22 25 1008.7 - -
 
Date/Time
EST
Temp
°C
App
Temp
°C
Dew
Point
Rel
Hum
%
Delta-T
°C
Wind Press
QNH
hPa
Press
MSL
hPa
Rain
since 9 am
mm
Dir
 
Spd
km/h
Gust
km/h
Spd
kts
Gust
kts
24/11:30pm 29.1 - - - - NW 35 43 19 23 1008.7 - -
24/11:15pm 29.1 - - - - WNW 39 - 21 - - 1008.7 -
24/11:00pm 29.1 - - - - WNW 39 44 21 24 1008.9 - -
24/10:30pm 29.1 - - - - WNW 35 41 19 22 1009.2 - -
24/10:15pm 29.2 - - - - WNW 39 - 21 - - 1009.3 -
24/10:00pm 29.3 - - - - WNW 37 43 20 23 1009.7 - -
24/09:30pm 29.2 - - - - NW 37 41 20 22 1009.7 - -
24/09:15pm 29.2 - - - - NW 37 - 20 - - 1009.1 -
24/09:00pm 29.1 - - - - NW 35 41 19 22 1009.1 - -
24/08:30pm 29.3 - - - - NW 39 46 21 25 1008.8 - -
24/08:15pm 29.2 - - - - NW 37 - 20 - - 1008.1 -
24/08:00pm 29.2 - - - - NW 37 43 20 23 1008.3 - -
24/07:30pm 29.2 - - - - NW 37 44 20 24 1007.9 - -
24/07:15pm 29.2 - - - - NW 37 - 20 - - 1007.5 -
24/07:00pm 29.2 - - - - NW 35 43 19 23 1007.6 - -
24/06:30pm 29.2 - - - - NW 37 44 20 24 1007.1 - -
24/06:15pm 29.2 - - - - NW 41 - 22 - - 1006.6 -
24/06:00pm 29.2 - - - - NW 35 41 19 22 1006.7 - -
24/05:30pm 29.2 - - - - NW 37 41 20 22 1006.3 - -
24/05:15pm 29.2 - - - - NW 35 - 19 - - 1005.7 -
24/05:00pm 29.2 - - - - NW 33 39 18 21 1005.8 - -
24/04:30pm 29.2 - - - - NW 33 39 18 21 1005.4 - -
24/04:15pm 29.2 - - - - NW 37 - 20 - - 1005.0 -
24/04:00pm 29.2 - - - - NW 39 43 21 23 1005.4 - -
24/03:30pm 29.2 - - - - WNW 39 44 21 24 1005.9 - -
24/03:15pm 29.3 - - - - WNW 39 - 21 - - 1005.9 -
24/03:00pm 29.2 - - - - WNW 39 44 21 24 1006.4 - -
24/02:30pm 29.2 - - - - WNW 35 43 19 23 1006.7 - -
24/02:15pm 29.1 - - - - WNW 35 - 19 - - 1006.5 -
24/02:00pm 29.2 - - - - WNW 41 46 22 25 1006.8 - -
24/01:30pm 29.1 - - - - NW 35 43 19 23 1007.1 - -
24/01:15pm 29.1 - - - - NW 37 - 20 - - 1006.8 -
24/01:00pm 29.1 - - - - NW 37 41 20 22 1007.3 - -
24/12:30pm 29.1 - - - - NW 39 44 21 24 1007.4 - -
24/12:15pm 29.1 - - - - NW 37 - 20 - - 1007.2 -
24/12:00pm 29.1 - - - - NW 35 41 19 22 1007.7 - -
24/11:30am 29.1 - - - - NW 35 41 19 22 1007.9 - -
24/11:15am 29.1 - - - - NW 35 - 19 - - 1007.7 -
24/11:00am 29.1 - - - - NW 37 43 20 23 1008.1 - -
24/10:30am 29.0 - - - - NW 37 43 20 23 1008.2 - -
24/10:15am 28.9 - - - - NW 39 - 21 - - 1007.7 -
24/10:00am 29.1 - - - - WNW 39 44 21 24 1008.0 - -
24/09:30am 29.0 - - - - WNW 37 41 20 22 1007.8 - -
24/09:15am 29.0 - - - - NW 39 - 21 - - 1007.5 -
24/09:00am 29.0 - - - - NW 39 44 21 24 1007.7 - -
24/08:30am 28.9 - - - - NW 37 43 20 23 1007.6 - -
24/08:15am 28.9 - - - - NW 39 - 21 - - 1007.2 -
24/08:00am 28.9 - - - - NW 39 43 21 23 1007.3 - -
24/07:30am 28.9 - - - - NW 37 43 20 23 1007.0 - -
24/07:15am 28.9 - - - - NW 39 - 21 - - 1006.7 -
24/07:00am 29.0 - - - - NW 37 43 20 23 1006.7 - -
24/06:30am 28.8 - - - - NW 37 44 20 24 1006.5 - -
24/06:15am 28.9 - - - - WNW 39 - 21 - - 1006.1 -
24/06:00am 28.9 - - - - WNW 37 41 20 22 1006.2 - -
24/05:30am 28.9 - - - - NW 37 44 20 24 1006.1 - -
24/05:15am 28.8 - - - - NW 37 - 20 - - 1005.6 -
24/05:00am 28.9 - - - - NW 37 43 20 23 1005.8 - -
24/04:30am 28.3 - - - - NNW 37 43 20 23 1005.2 - -
24/04:15am 28.5 - - - - NNW 39 - 21 - - 1004.7 -
24/04:00am 28.3 - - - - NNW 41 54 22 29 1004.8 - -
24/03:30am 28.9 - - - - NNW 39 44 21 24 1005.2 - -
24/03:15am 28.9 - - - - NNW 37 - 20 - - 1004.8 -
24/03:00am 28.9 - - - - NNW 39 46 21 25 1005.1 - -
24/02:30am 28.9 - - - - NNW 35 43 19 23 1005.2 - -
24/02:15am 29.0 - - - - NW 37 - 20 - - 1005.1 -
24/02:00am 29.1 - - - - NNW 37 44 20 24 1005.3 - -
24/01:30am 29.0 - - - - NNW 39 43 21 23 1005.5 - -
24/01:15am 28.9 - - - - NNW 33 - 18 - - 1005.3 -
24/01:00am 29.0 - - - - NNW 37 43 20 23 1005.9 - -
24/12:30am 29.1 - - - - NNW 33 37 18 20 1006.3 - -
24/12:15am 29.1 - - - - NNW 37 - 20 - - 1006.1 -
24/12:00am 29.1 - - - - NNW 37 43 20 23 1006.3 - -
 
Date/Time
EST
Temp
°C
App
Temp
°C
Dew
Point
Rel
Hum
%
Delta-T
°C
Wind Press
QNH
hPa
Press
MSL
hPa
Rain
since 9 am
mm
Dir
 
Spd
km/h
Gust
km/h
Spd
kts
Gust
kts
23/11:30pm 29.2 - - - - NNW 39 44 21 24 1006.9 - -
23/11:15pm 29.2 - - - - NNW 39 - 21 - - 1006.5 -
23/11:00pm 29.3 - - - - NNW 39 46 21 25 1006.9 - -
23/10:30pm 29.2 - - - - NNW 37 43 20 23 1006.8 - -
23/10:15pm 29.2 - - - - NNW 35 - 19 - - 1006.5 -
23/10:00pm 29.2 - - - - NNW 35 43 19 23 1006.7 - -
23/09:30pm 29.2 - - - - NNW 35 41 19 22 1006.5 - -
23/09:15pm 29.2 - - - - NNW 39 - 21 - - 1006.0 -
23/09:00pm 29.3 - - - - NNW 41 46 22 25 1006.2 - -
23/08:30pm 29.2 - - - - NW 35 43 19 23 1005.9 - -
23/08:15pm 29.3 - - - - NW 39 - 21 - - 1005.4 -
23/08:00pm 29.2 - - - - NW 37 43 20 23 1005.6 - -
23/07:30pm 29.2 - - - - NW 37 43 20 23 1005.1 - -
23/07:15pm 29.2 - - - - NW 33 - 18 - - 1004.8 -
23/07:00pm 29.2 - - - - NW 35 41 19 22 1004.9 - -
23/06:30pm 29.1 - - - - NW 33 39 18 21 1004.6 - -
23/06:15pm 29.1 - - - - NW 37 - 20 - - 1004.2 -
23/06:00pm 29.2 - - - - NW 37 43 20 23 1004.5 - -
23/05:30pm 29.3 - - - - NW 37 43 20 23 1004.1 - -
23/05:15pm 29.1 - - - - NW 37 - 20 - - 1003.6 -
23/05:00pm 29.2 - - - - NW 33 35 18 19 1003.8 - -
23/04:30pm 29.2 - - - - NW 32 35 17 19 1003.4 - -
23/04:15pm 29.0 - - - - NW 32 - 17 - - 1003.1 -
23/04:00pm 29.0 - - - - NW 32 35 17 19 1003.3 - -
23/03:30pm 29.0 - - - - WNW 35 41 19 22 1003.2 - -
23/03:15pm 29.2 - - - - WNW 37 - 20 - - 1003.0 -
23/03:00pm 29.2 - - - - WNW 37 41 20 22 1003.3 - -
23/02:30pm 29.1 - - - - WNW 35 39 19 21 1003.7 - -
23/02:15pm 29.1 - - - - WNW 35 - 19 - - 1003.5 -
23/02:00pm 29.1 - - - - WNW 37 43 20 23 1003.9 - -
23/01:30pm 28.9 - - - - WNW 37 43 20 23 1004.2 - -
23/01:15pm 29.1 - - - - WNW 35 - 19 - - 1004.0 -
23/01:00pm 29.1 - - - - WNW 33 39 18 21 1004.3 - -
23/12:30pm 29.1 - - - - WNW 35 39 19 21 1004.5 - -
23/12:15pm 28.9 - - - - WNW 37 - 20 - - 1004.5 -
23/12:00pm 29.0 - - - - WNW 37 44 20 24 1005.0 - -
23/11:30am 29.0 - - - - WNW 37 43 20 23 1005.2 - -
23/11:15am 28.9 - - - - WNW 37 - 20 - - 1005.0 -
23/11:00am 28.9 - - - - WNW 33 41 18 22 1005.3 - -
23/10:30am 29.0 - - - - WNW 33 39 18 21 1005.4 - -
23/10:15am 28.9 - - - - WNW 33 - 18 - - 1005.2 -
23/10:00am 29.0 - - - - WNW 33 39 18 21 1005.5 - -
23/09:30am 28.9 - - - - WNW 35 41 19 22 1005.7 - -
23/09:15am 29.0 - - - - WNW 35 - 19 - - 1005.4 -
23/09:00am 29.0 - - - - WNW 35 46 19 25 1005.6 - -
23/08:30am 29.0 - - - - WNW 37 43 20 23 1005.5 - -
23/08:15am 29.1 - - - - WNW 37 - 20 - - 1005.2 -
23/08:00am 29.0 - - - - WNW 37 41 20 22 1005.6 - -
23/07:30am 29.0 - - - - WNW 43 48 23 26 1005.5 - -
23/07:15am 28.5 - - - - WNW 37 - 20 - - 1005.2 -
23/07:00am 25.7 - - - - WNW 43 61 23 33 1005.7 - -
23/06:56am 28.6 - - - - WNW 43 61 23 33 1005.5 - -
23/06:45am 29.0 - - - - WNW 37 48 20 26 1005.4 - -
23/06:30am 26.3 - - - - WSW 35 46 19 25 1005.7 - -
23/06:26am 26.9 - - - - WSW 37 46 20 25 1005.7 - -
23/06:15am 29.1 - - - - WNW 43 - 23 - - 1004.8 -
23/06:00am 29.1 - - - - WNW 46 54 25 29 1004.8 - -
23/05:30am 29.1 - - - - WNW 43 46 23 25 1004.5 - -
23/05:15am 29.0 - - - - WNW 43 - 23 - - 1004.0 -
23/05:00am 29.0 - - - - WNW 43 50 23 27 1004.1 - -
23/04:30am 29.1 - - - - NW 39 44 21 24 1004.0 - -
23/04:15am 29.1 - - - - WNW 41 - 22 - - 1003.6 -
23/04:00am 29.1 - - - - NW 43 52 23 28 1003.7 - -
23/03:30am 29.0 - - - - NW 44 50 24 27 1003.6 - -
23/03:15am 29.0 - - - - NW 46 - 25 - - 1003.3 -
23/03:00am 29.1 - - - - NW 44 52 24 28 1003.9 - -
23/02:30am 29.1 - - - - NW 43 48 23 26 1003.9 - -
23/02:15am 29.1 - - - - NW 43 - 23 - - 1003.6 -
23/02:00am 29.1 - - - - NW 37 46 20 25 1004.2 - -
23/01:30am 29.2 - - - - NW 41 48 22 26 1004.5 - -
23/01:15am 29.3 - - - - WNW 41 - 22 - - 1004.3 -
23/01:00am 29.3 - - - - WNW 41 48 22 26 1004.8 - -
23/12:30am 29.2 - - - - NW 41 48 22 26 1005.1 - -
23/12:15am 29.2 - - - - NW 41 - 22 - - 1004.6 -

Other Formats:

Comma delimited format used in spreadsheet applications
http://www.bom.gov.au/fwo/IDQ60801/IDQ60801.94289.axf

JavaScript Object Notation format (JSON) in row-major order
http://www.bom.gov.au/fwo/IDQ60801/IDQ60801.94289.json